Time;durP1;ratioP1;P1;durP2;ratioP2;P2;SDS_P1;SDS_P2;PMS_P1;PMS_P2;Temp;Humidity;BMP_temperature;BMP_pressure;BME280_temperature;BME280_humidity;BME280_pressure;Samples;Min_cycle;Max_cycle;Signal;HPM_P1;HPM_P2
2021/10/28 00:12:27;;;;;;;4.23;3.00;;;;;;;8.34;74.28;97411.91;1796744;78;21095;-81
2021/10/28 00:17:19;;;;;;;4.05;3.33;;;;;;;8.30;74.31;97402.77;1800167;77;21504;-82
2021/10/28 00:19:45;;;;;;;4.17;3.08;;;;;;;8.27;74.25;97401.73;1708686;81;21074;-81
2021/10/28 00:22:12;;;;;;;3.72;2.85;;;;;;;8.31;74.33;97402.28;1835394;76;21058;-81
2021/10/28 00:24:39;;;;;;;4.85;2.85;;;;;;;8.32;74.17;97400.84;1793614;77;21161;-81
2021/10/28 00:27:06;;;;;;;5.03;3.30;;;;;;;8.34;74.10;97398.95;1774857;79;21065;-81
2021/10/28 00:29:33;;;;;;;4.00;3.05;;;;;;;8.34;74.01;97397.66;1759755;80;21458;-81
2021/10/28 00:31:59;;;;;;;5.10;2.98;;;;;;;8.34;74.08;97398.14;1791498;78;21058;-82
2021/10/28 00:34:25;;;;;;;4.58;3.30;;;;;;;8.31;74.12;97404.88;1792949;78;21086;-81
2021/10/28 00:36:52;;;;;;;4.20;3.02;;;;;;;8.25;74.12;97404.94;1805917;77;21082;-81
2021/10/28 00:39:18;;;;;;;6.12;3.10;;;;;;;8.22;74.23;97403.13;1821501;76;21094;-81
2021/10/28 00:41:44;;;;;;;4.60;2.92;;;;;;;8.21;74.18;97403.61;1837558;77;21086;-81
2021/10/28 00:44:13;;;;;;;4.25;3.40;;;;;;;8.21;74.23;97402.31;1761820;78;21127;-82
2021/10/28 00:46:39;;;;;;;4.97;3.12;;;;;;;8.23;74.26;97406.05;1794013;77;21445;-81
2021/10/28 00:49:09;;;;;;;4.67;3.15;;;;;;;8.22;74.34;97403.13;1770293;77;21153;-81
2021/10/28 00:51:35;;;;;;;5.12;3.40;;;;;;;8.22;74.45;97400.53;1767614;79;21176;-81
2021/10/28 00:54:01;;;;;;;4.12;3.50;;;;;;;8.20;74.56;97404.56;1786031;77;21077;-81
2021/10/28 00:56:28;;;;;;;3.55;2.80;;;;;;;8.17;74.65;97402.27;1764149;76;21196;-81
2021/10/28 00:58:54;;;;;;;4.45;3.37;;;;;;;8.15;74.99;97402.07;1827812;77;21045;-81
2021/10/28 01:01:19;;;;;;;4.37;3.05;;;;;;;8.10;74.77;97406.36;1839397;76;21073;-81
2021/10/28 01:03:45;;;;;;;5.15;3.45;;;;;;;8.10;74.76;97407.65;1828560;77;21162;-81
2021/10/28 01:06:12;;;;;;;7.40;3.42;;;;;;;8.11;74.79;97404.92;1811933;77;21165;-81
2021/10/28 01:08:39;;;;;;;3.58;2.90;;;;;;;8.10;74.94;97407.17;1837192;76;21083;-81
2021/10/28 01:11:09;;;;;;;5.20;2.87;;;;;;;8.08;74.98;97401.80;1769715;78;21453;-81
2021/10/28 01:13:35;;;;;;;5.87;2.80;;;;;;;8.09;75.23;97401.66;1789541;79;21706;-81
2021/10/28 01:16:01;;;;;;;4.15;2.98;;;;;;;8.04;75.20;97397.88;1784788;79;21427;-81
2021/10/28 01:18:30;;;;;;;6.65;3.17;;;;;;;7.98;75.31;97399.73;1785858;78;21063;-81
2021/10/28 01:20:55;;;;;;;4.15;2.90;;;;;;;7.92;75.82;97395.11;1774712;79;21114;-81
2021/10/28 01:23:21;;;;;;;4.12;2.98;;;;;;;7.90;75.66;97398.31;1774653;79;21023;-81
2021/10/28 01:25:59;;;;;;;5.20;3.00;;;;;;;7.89;75.85;97394.09;1798196;79;21043;-81
2021/10/28 01:28:27;;;;;;;5.03;3.30;;;;;;;7.88;75.93;97389.41;1800423;77;21078;-81
2021/10/28 01:30:56;;;;;;;4.25;2.40;;;;;;;7.87;76.09;97389.55;1762179;79;21159;-81
2021/10/28 01:33:22;;;;;;;4.05;2.52;;;;;;;7.83;76.07;97390.31;1765780;80;21236;-81
2021/10/28 01:35:48;;;;;;;3.50;2.30;;;;;;;7.79;76.18;97391.04;1788490;78;21536;-81
2021/10/28 01:38:15;;;;;;;3.92;2.30;;;;;;;7.75;76.46;97394.87;1772482;78;21170;-81
2021/10/28 01:40:41;;;;;;;4.03;2.50;;;;;;;7.74;76.44;97393.72;1758577;78;21091;-81
2021/10/28 01:43:07;;;;;;;2.62;2.12;;;;;;;7.73;76.44;97386.44;1745580;80;21532;-81
2021/10/28 01:45:32;;;;;;;2.87;1.98;;;;;;;7.73;76.29;97383.84;1781912;78;21138;-81
2021/10/28 01:48:00;;;;;;;3.30;2.37;;;;;;;7.73;76.59;97385.14;1790457;78;21166;-81
2021/10/28 01:50:28;;;;;;;4.30;2.75;;;;;;;7.71;76.50;97385.77;1789705;79;21079;-81
2021/10/28 01:52:54;;;;;;;2.85;2.12;;;;;;;7.70;76.60;97378.95;1796850;78;21059;-81
2021/10/28 01:55:20;;;;;;;4.33;2.70;;;;;;;7.68;76.49;97380.05;1783982;79;21075;-80
2021/10/28 01:57:45;;;;;;;2.62;2.10;;;;;;;7.66;76.41;97380.20;1794333;77;21387;-81
2021/10/28 02:00:19;;;;;;;3.35;2.35;;;;;;;7.65;76.43;97391.50;1834931;77;21138;-81
2021/10/28 02:02:45;;;;;;;3.27;2.17;;;;;;;7.61;76.32;97378.48;1793278;79;21181;-81
2021/10/28 02:05:13;;;;;;;3.47;2.27;;;;;;;7.70;76.24;97388.48;1824223;77;21036;-81
2021/10/28 02:07:39;;;;;;;3.37;2.45;;;;;;;7.71;76.20;97394.81;1825429;77;21117;-81
2021/10/28 02:10:06;;;;;;;3.85;2.45;;;;;;;7.74;76.07;97396.30;1814699;77;21431;-81
2021/10/28 02:12:33;;;;;;;3.33;2.33;;;;;;;7.71;75.97;97393.52;1800469;77;21080;-81
2021/10/28 02:14:59;;;;;;;6.58;2.65;;;;;;;7.70;76.03;97388.01;1834985;77;21066;-81
2021/10/28 02:17:25;;;;;;;3.85;2.45;;;;;;;7.67;76.05;97388.30;1833184;77;21096;-81
2021/10/28 02:19:50;;;;;;;4.60;2.50;;;;;;;7.64;76.13;97390.31;1824479;78;21496;-81
2021/10/28 02:22:16;;;;;;;2.92;2.60;;;;;;;7.63;75.90;97385.63;1803868;78;21134;-81
2021/10/28 02:24:42;;;;;;;4.80;2.70;;;;;;;7.64;75.87;97383.38;1789957;77;21078;-81
2021/10/28 02:27:08;;;;;;;3.72;2.42;;;;;;;7.66;75.90;97389.73;1812534;77;21055;-81
2021/10/28 02:29:34;;;;;;;3.67;2.25;;;;;;;7.68;75.85;97391.70;1820155;76;21433;-81
2021/10/28 02:32:02;;;;;;;3.10;2.60;;;;;;;7.63;75.75;97388.69;1836445;76;21093;-81
2021/10/28 02:34:28;;;;;;;5.00;2.90;;;;;;;7.58;75.85;97390.88;1808254;77;21466;-82
2021/10/28 02:36:53;;;;;;;3.90;2.50;;;;;;;7.55;75.93;97388.58;1837493;77;21023;-81
2021/10/28 02:39:19;;;;;;;3.33;1.90;;;;;;;7.51;76.01;97382.88;1817557;78;21044;-81
2021/10/28 02:41:45;;;;;;;3.90;1.98;;;;;;;7.48;76.12;97381.83;1800122;76;21101;-81
2021/10/28 02:44:11;;;;;;;3.08;2.10;;;;;;;7.46;76.30;97379.86;1784139;77;21113;-81
2021/10/28 02:46:40;;;;;;;3.40;1.90;;;;;;;7.47;76.06;97387.95;1777958;79;21071;-81
2021/10/28 02:49:11;;;;;;;2.98;2.25;;;;;;;7.42;76.10;97381.09;1781282;79;21087;-81
2021/10/28 02:51:33;;;;;;;3.45;2.33;;;;;;;7.38;76.12;97383.62;1793616;78;21116;-81
2021/10/28 02:53:59;;;;;;;2.70;2.30;;;;;;;7.34;76.29;97386.16;1794255;78;21600;-81
2021/10/28 02:56:25;;;;;;;2.35;2.12;;;;;;;7.30;76.30;97388.65;1793390;78;21094;-81
2021/10/28 02:58:51;;;;;;;3.77;2.47;;;;;;;7.18;76.42;97375.88;1783601;79;21569;-80
2021/10/28 03:01:17;;;;;;;3.70;2.70;;;;;;;7.26;76.41;97390.70;1789044;78;21017;-81
2021/10/28 03:03:43;;;;;;;2.98;2.22;;;;;;;7.31;76.51;97398.03;1801705;77;21126;-81
2021/10/28 03:06:09;;;;;;;4.65;2.58;;;;;;;7.32;76.47;97397.08;1792049;78;21075;-81
2021/10/28 03:08:35;;;;;;;3.90;2.37;;;;;;;7.32;76.59;97394.50;1757378;79;21147;-81
2021/10/28 03:11:03;;;;;;;2.62;2.27;;;;;;;7.30;76.67;97395.11;1736227;80;21147;-81
2021/10/28 03:13:30;;;;;;;2.65;2.33;;;;;;;7.26;76.72;97402.33;1711689;80;21059;-81
2021/10/28 03:15:56;;;;;;;5.00;2.85;;;;;;;7.22;76.83;97403.08;1764582;78;21042;-81
2021/10/28 03:26:37;;;;;;;3.12;2.65;;;;;;;7.26;76.73;97400.22;1806349;77;21059;-81
2021/10/28 03:29:03;;;;;;;4.03;2.40;;;;;;;7.23;76.69;97404.72;1770888;78;21141;-81
2021/10/28 03:31:29;;;;;;;3.25;2.42;;;;;;;7.21;76.71;97401.93;1745457;79;21086;-81
2021/10/28 03:33:56;;;;;;;3.20;2.20;;;;;;;7.17;76.64;97407.85;1732116;79;21130;-81
2021/10/28 03:41:54;;;;;;;4.03;2.27;;;;;;;7.03;76.95;97422.45;1760958;79;21064;-81
2021/10/28 04:05:14;;;;;;;3.52;2.27;;;;;;;6.85;77.68;97436.98;1820362;77;21146;-81
2021/10/28 04:31:16;;;;;;;3.70;2.70;;;;;;;6.69;78.20;97439.25;1808946;76;21091;-81
2021/10/28 04:33:42;;;;;;;3.80;2.75;;;;;;;6.69;78.22;97439.25;1808877;78;21082;-81
2021/10/28 04:38:36;;;;;;;3.72;2.80;;;;;;;6.67;78.34;97452.30;1776190;79;21143;-81
2021/10/28 04:41:02;;;;;;;3.85;2.65;;;;;;;6.66;78.39;97449.34;1802709;77;21190;-81
2021/10/28 04:43:28;;;;;;;4.00;2.30;;;;;;;6.65;78.48;97449.47;1816378;77;21027;-80
2021/10/28 04:45:54;;;;;;;3.65;2.65;;;;;;;6.65;78.53;97445.13;1787342;77;21576;-81
2021/10/28 04:48:20;;;;;;;4.33;2.58;;;;;;;6.63;78.57;97449.61;1772764;79;21209;-81
2021/10/28 04:50:46;;;;;;;3.50;2.40;;;;;;;6.63;78.56;97447.02;1808710;77;21062;-80
2021/10/28 04:53:11;;;;;;;3.55;2.62;;;;;;;6.63;78.57;97447.02;1813372;77;21078;-81
2021/10/28 04:55:37;;;;;;;4.17;2.90;;;;;;;6.61;78.64;97449.74;1823671;76;21096;-81
2021/10/28 04:58:04;;;;;;;3.85;2.95;;;;;;;6.58;78.83;97444.02;1826317;75;21150;-81
2021/10/28 05:00:31;;;;;;;2.95;2.62;;;;;;;6.56;78.86;97449.33;1790609;77;21052;-81
2021/10/28 05:02:57;;;;;;;4.47;2.72;;;;;;;6.54;78.83;97449.93;1790987;78;21123;-80
2021/10/28 05:05:23;;;;;;;4.20;2.60;;;;;;;6.54;78.78;97446.53;1769802;79;21130;-81
2021/10/28 05:07:49;;;;;;;5.12;2.50;;;;;;;6.56;78.75;97454.97;1808240;76;21137;-81
2021/10/28 05:10:15;;;;;;;4.87;2.83;;;;;;;6.58;78.75;97451.30;1814257;78;21079;-81
2021/10/28 05:12:41;;;;;;;4.10;2.65;;;;;;;6.58;78.72;97458.23;1806218;78;21165;-81
2021/10/28 05:15:07;;;;;;;3.75;2.77;;;;;;;6.56;78.62;97454.48;1797287;78;21558;-81
2021/10/28 05:17:33;;;;;;;2.77;2.45;;;;;;;6.53;78.64;97451.36;1822495;77;21098;-81
2021/10/28 05:20:00;;;;;;;3.10;2.70;;;;;;;6.50;78.79;97448.53;1812157;78;21012;-81
2021/10/28 05:22:27;;;;;;;3.15;2.65;;;;;;;6.49;78.98;97454.65;1835888;76;21079;-81
2021/10/28 05:24:53;;;;;;;3.35;2.50;;;;;;;6.48;79.14;97453.02;1789939;78;21146;-81
2021/10/28 05:27:19;;;;;;;2.98;2.67;;;;;;;6.49;79.11;97451.25;1806992;78;21109;-80
2021/10/28 05:29:44;;;;;;;3.98;2.60;;;;;;;6.50;79.04;97454.17;1798564;78;21114;-80
2021/10/28 05:32:10;;;;;;;3.02;2.62;;;;;;;6.50;78.95;97452.41;1804320;77;21102;-81
2021/10/28 05:34:37;;;;;;;5.58;2.58;;;;;;;6.51;79.02;97447.62;1799769;78;21063;-81
2021/10/28 05:37:04;;;;;;;3.05;2.50;;;;;;;6.53;79.03;97459.92;1808082;78;21099;-81
2021/10/28 05:39:30;;;;;;;3.10;2.67;;;;;;;6.51;79.04;97455.36;1806797;78;21085;-81
2021/10/28 05:41:57;;;;;;;3.62;2.42;;;;;;;6.50;79.05;97462.73;1787573;78;21044;-80
2021/10/28 05:44:22;;;;;;;3.27;2.60;;;;;;;6.53;79.05;97464.27;1782905;79;21602;-80
2021/10/28 05:46:48;;;;;;;3.27;2.55;;;;;;;6.54;78.99;97464.14;1753730;79;21130;-80
2021/10/28 05:49:14;;;;;;;3.35;2.60;;;;;;;6.59;78.88;97465.84;1749505;80;21087;-81
2021/10/28 05:51:40;;;;;;;3.02;2.62;;;;;;;6.59;78.96;97463.27;1760888;79;21139;-81
2021/10/28 05:54:06;;;;;;;3.72;2.50;;;;;;;6.60;79.05;97464.08;1779677;79;21115;-81
2021/10/28 05:56:33;;;;;;;2.70;1.92;;;;;;;6.59;79.17;97465.03;1808785;77;21055;-81
2021/10/28 05:58:58;;;;;;;4.25;2.50;;;;;;;6.58;79.18;97465.50;1804061;77;21063;-81
2021/10/28 06:01:24;;;;;;;2.60;2.15;;;;;;;6.59;79.06;97468.42;1792455;78;21100;-80
2021/10/28 06:03:50;;;;;;;2.50;2.02;;;;;;;6.60;79.08;97458.44;1758718;79;21063;-81
2021/10/28 06:06:16;;;;;;;3.90;2.60;;;;;;;6.65;79.00;97462.39;1848127;76;21422;-81
2021/10/28 06:08:42;;;;;;;5.55;2.70;;;;;;;6.67;78.98;97467.80;1849144;76;21126;-81
2021/10/28 06:11:08;;;;;;;4.25;2.33;;;;;;;6.71;78.94;97462.70;1799927;79;21391;-81
2021/10/28 06:13:41;;;;;;;3.27;2.30;;;;;;;6.73;78.86;97465.97;1787563;78;21077;-81
2021/10/28 06:16:02;;;;;;;5.17;3.00;;;;;;;6.78;78.90;97466.85;1743612;80;21147;-82
2021/10/28 06:20:54;;;;;;;3.95;2.27;;;;;;;6.79;78.82;97456.86;1779204;78;20982;-81
2021/10/28 06:23:20;;;;;;;3.83;2.30;;;;;;;6.81;78.77;97464.00;1759902;80;21060;-82
2021/10/28 06:25:46;;;;;;;3.40;2.33;;;;;;;6.85;78.59;97462.81;1742782;80;21086;-80
2021/10/28 06:28:12;;;;;;;3.37;2.40;;;;;;;6.88;78.75;97462.06;1765993;79;21445;-80
2021/10/28 06:30:38;;;;;;;4.22;2.70;;;;;;;6.92;78.81;97460.03;1795012;77;21104;-81
2021/10/28 06:33:09;;;;;;;3.80;2.70;;;;;;;6.92;78.71;97463.43;1778419;79;21224;-81
2021/10/28 06:35:32;;;;;;;3.67;2.30;;;;;;;6.93;78.68;97465.54;1781403;79;21060;-81
2021/10/28 06:37:57;;;;;;;3.37;2.37;;;;;;;6.96;78.63;97461.87;1810081;76;21422;-81
2021/10/28 06:40:25;;;;;;;3.47;2.98;;;;;;;6.99;78.41;97465.00;1809545;77;21039;-81
2021/10/28 06:42:51;;;;;;;4.60;3.08;;;;;;;7.03;78.34;97466.86;1798461;77;21044;-81
2021/10/28 06:45:18;;;;;;;3.52;2.72;;;;;;;7.06;78.30;97467.41;1795325;77;21072;-81
2021/10/28 06:47:43;;;;;;;4.65;3.20;;;;;;;7.07;78.52;97472.92;1790727;78;21039;-81
2021/10/28 06:50:14;;;;;;;3.00;2.70;;;;;;;7.02;78.31;97473.80;1793271;77;21185;-81
2021/10/28 06:55:32;;;;;;;5.53;3.45;;;;;;;6.98;78.35;97474.99;1736273;80;21080;-81
2021/10/28 07:03:05;;;;;;;3.90;3.00;;;;;;;6.99;78.38;97476.63;1792453;78;21493;-81
2021/10/28 07:05:30;;;;;;;4.15;3.45;;;;;;;6.99;78.48;97477.10;1795975;79;21150;-81
2021/10/28 07:07:56;;;;;;;4.75;3.00;;;;;;;7.02;78.58;97479.45;1774889;77;21184;-81
2021/10/28 07:10:24;;;;;;;3.27;2.87;;;;;;;7.04;78.61;97478.84;1843281;77;21363;-81
2021/10/28 07:15:20;;;;;;;3.37;2.87;;;;;;;7.02;78.55;97475.57;1825817;77;21115;-81
2021/10/28 07:20:45;;;;;;;3.45;3.08;;;;;;;7.07;78.52;97476.80;1829871;76;21117;-81
2021/10/28 07:25:41;;;;;;;3.15;2.50;;;;;;;7.11;78.28;97469.11;1814265;77;21517;-80
2021/10/28 07:33:18;;;;;;;4.87;2.40;;;;;;;7.10;78.27;97477.81;1839381;76;21182;-81
2021/10/28 07:38:59;;;;;;;3.33;2.08;;;;;;;7.25;78.14;97473.08;1764601;77;21580;-81
2021/10/28 08:05:21;;;;;;;2.40;2.20;;;;;;;8.02;77.19;97471.78;1824919;75;21130;-81
2021/10/28 08:15:37;;;;;;;3.40;3.02;;;;;;;8.25;76.78;97469.67;1842950;75;21078;-80
2021/10/28 08:18:02;;;;;;;4.25;2.58;;;;;;;8.33;76.67;97459.45;1784615;79;21092;-81
2021/10/28 08:23:07;;;;;;;6.42;5.08;;;;;;;8.49;76.32;97462.77;1803250;76;21630;-81
2021/10/28 08:30:44;;;;;;;4.90;4.40;;;;;;;8.73;76.08;97453.98;1767141;78;21111;-80
2021/10/28 08:33:12;;;;;;;3.87;3.42;;;;;;;8.79;75.86;97444.02;1791992;78;21106;-81
2021/10/28 08:35:40;;;;;;;4.55;3.62;;;;;;;8.83;75.89;97444.06;1813678;76;21496;-81
2021/10/28 08:38:06;;;;;;;5.00;3.45;;;;;;;8.86;75.79;97444.58;1791586;77;21154;-81
2021/10/28 08:40:33;;;;;;;3.75;2.80;;;;;;;8.92;75.75;97445.77;1808670;77;21516;-81
2021/10/28 08:43:00;;;;;;;4.72;3.00;;;;;;;9.00;75.96;97444.58;1773791;80;21140;-81
2021/10/28 08:45:33;;;;;;;3.58;2.95;;;;;;;9.09;75.89;97438.98;1759195;79;21047;-82
2021/10/28 08:47:57;;;;;;;4.30;3.35;;;;;;;9.14;75.77;97440.20;1776234;77;21073;-81
2021/10/28 08:53:09;;;;;;;4.87;3.40;;;;;;;9.28;75.56;97436.28;1704719;80;21471;-81
2021/10/28 09:29:18;;;;;;;11.10;8.95;;;;;;;10.45;74.90;97434.23;1808493;76;21050;-81
2021/10/28 09:31:53;;;;;;;11.95;8.75;;;;;;;10.53;74.34;97433.77;1803430;77;21085;-81
2021/10/28 09:47:39;;;;;;;13.53;9.00;;;;;;;11.01;73.87;97423.22;1834895;75;21101;-81
2021/10/28 09:50:24;;;;;;;6.95;5.35;;;;;;;11.07;73.30;97418.70;1772308;78;21555;-81
2021/10/28 09:58:05;;;;;;;19.77;14.07;;;;;;;11.42;73.11;97416.31;1801598;78;21076;-81
2021/10/28 10:00:39;;;;;;;18.25;13.13;;;;;;;11.57;71.99;97418.27;1833771;76;21138;-81
2021/10/28 10:03:11;;;;;;;18.23;14.95;;;;;;;11.70;72.30;97411.58;1842395;77;21780;-81
2021/10/28 10:05:37;;;;;;;12.78;9.30;;;;;;;11.82;71.29;97410.80;1820692;76;21029;-81
2021/10/28 10:08:06;;;;;;;16.20;10.58;;;;;;;11.89;72.12;97405.77;1828400;75;21456;-81
2021/10/28 10:10:30;;;;;;;10.70;8.50;;;;;;;11.97;71.77;97414.36;1846643;75;21557;-81
2021/10/28 10:12:56;;;;;;;14.58;10.03;;;;;;;12.06;72.21;97403.45;1846447;75;21062;-81
2021/10/28 10:15:22;;;;;;;13.25;10.15;;;;;;;12.11;71.36;97402.45;1837098;77;21043;-81
2021/10/28 10:20:19;;;;;;;11.68;9.28;;;;;;;12.22;71.95;97403.42;1846673;77;21051;-81
2021/10/28 11:22:09;;;;;;;13.30;8.43;;;;;;;13.74;63.64;97359.33;1795880;78;21138;-81
2021/10/28 11:27:18;;;;;;;13.05;8.90;;;;;;;13.87;63.78;97343.05;1803859;77;21015;-81
2021/10/28 12:45:51;;;;;;;10.55;6.80;;;;;;;14.73;59.98;97271.44;1785441;80;21123;-82
2021/10/28 12:51:05;;;;;;;11.33;7.92;;;;;;;14.69;59.68;97268.39;1770847;79;21147;-82
2021/10/28 14:37:33;;;;;;;13.18;10.65;;;;;;;12.90;64.36;97250.72;1725461;81;22165;-82
2021/10/28 15:30:22;;;;;;;12.98;7.58;;;;;;;10.89;68.32;97243.77;1758806;79;21154;-82
2021/10/28 15:35:40;;;;;;;11.20;7.80;;;;;;;10.74;68.83;97241.03;1788351;79;21442;-82
2021/10/28 16:23:04;;;;;;;12.05;8.73;;;;;;;9.85;71.33;97230.38;1740412;79;21160;-81
2021/10/28 16:25:30;;;;;;;11.03;8.08;;;;;;;9.80;71.40;97227.45;1724425;79;21111;-82
2021/10/28 16:27:55;;;;;;;11.05;7.95;;;;;;;9.77;71.45;97227.77;1811164;78;21114;-82
2021/10/28 16:30:21;;;;;;;12.98;9.08;;;;;;;9.72;71.54;97233.41;1786327;78;21043;-81
2021/10/28 16:32:48;;;;;;;11.68;8.93;;;;;;;9.67;71.79;97233.06;1785260;78;21139;-82
2021/10/28 16:35:14;;;;;;;9.58;7.05;;;;;;;9.66;71.69;97238.41;1805107;77;21423;-82
2021/10/28 16:37:40;;;;;;;12.78;7.75;;;;;;;9.65;71.64;97232.89;1818537;78;21036;-82
2021/10/28 16:40:07;;;;;;;13.83;8.38;;;;;;;9.65;71.58;97231.59;1799249;78;21169;-82
2021/10/28 16:42:33;;;;;;;10.03;7.62;;;;;;;9.62;71.67;97233.54;1797056;77;21496;-81
2021/10/28 16:44:59;;;;;;;10.20;7.58;;;;;;;9.60;71.80;97232.07;1810536;77;21044;-82
2021/10/28 16:47:27;;;;;;;11.48;8.10;;;;;;;9.58;71.84;97230.09;1748415;80;21051;-82
2021/10/28 16:49:53;;;;;;;11.50;8.10;;;;;;;9.55;71.93;97227.80;1796395;76;21360;-81
2021/10/28 16:52:19;;;;;;;11.80;8.73;;;;;;;9.51;71.94;97232.50;1795245;79;21048;-81
2021/10/28 16:54:44;;;;;;;11.68;7.97;;;;;;;9.49;71.95;97237.03;1781681;78;21549;-81
2021/10/28 16:57:10;;;;;;;9.43;7.08;;;;;;;9.48;72.00;97227.63;1812534;76;21133;-81
2021/10/28 16:59:36;;;;;;;12.18;8.15;;;;;;;9.50;72.11;97227.47;1814096;77;21094;-82
2021/10/28 17:02:02;;;;;;;14.65;8.68;;;;;;;9.50;72.12;97228.77;1819578;77;21177;-81
2021/10/28 17:04:30;;;;;;;13.60;9.78;;;;;;;9.49;72.01;97227.95;1792130;78;21011;-81
2021/10/28 17:06:55;;;;;;;12.73;8.23;;;;;;;9.47;72.22;97227.30;1760795;79;21052;-81
2021/10/28 17:09:22;;;;;;;11.78;9.03;;;;;;;9.44;72.35;97231.98;1784276;79;21125;-82
2021/10/28 17:11:48;;;;;;;12.18;8.75;;;;;;;9.38;72.67;97226.91;1821170;75;21066;-81
2021/10/28 17:14:14;;;;;;;10.88;8.70;;;;;;;9.35;72.66;97235.48;1819936;77;21089;-81
2021/10/28 17:16:44;;;;;;;11.33;8.53;;;;;;;9.32;72.64;97228.83;1760977;80;21422;-81
2021/10/28 17:19:10;;;;;;;13.90;8.50;;;;;;;9.31;72.67;97231.09;1727709;81;21083;-81
2021/10/28 17:21:35;;;;;;;11.97;8.20;;;;;;;9.31;72.49;97226.72;1759740;79;21082;-81
2021/10/28 17:24:03;;;;;;;10.43;8.20;;;;;;;9.31;72.19;97228.50;1809753;77;21106;-82
2021/10/28 17:26:30;;;;;;;11.53;8.35;;;;;;;9.29;72.44;97225.25;1837115;76;21138;-82
2021/10/28 17:29:00;;;;;;;10.80;7.58;;;;;;;9.28;72.49;97225.73;1766470;79;21058;-81
2021/10/28 17:31:27;;;;;;;13.45;8.20;;;;;;;9.26;72.73;97221.64;1800885;78;21190;-81
2021/10/28 17:33:53;;;;;;;11.00;7.97;;;;;;;9.21;72.84;97223.40;1782565;78;21154;-82
2021/10/28 17:36:19;;;;;;;13.43;8.08;;;;;;;9.17;72.89;97214.79;1780865;77;21509;-82
2021/10/28 17:38:45;;;;;;;9.75;8.18;;;;;;;9.16;72.90;97215.27;1774627;77;21071;-82
2021/10/28 17:41:11;;;;;;;9.80;7.50;;;;;;;9.16;72.83;97212.68;1778194;76;21083;-82
2021/10/28 17:43:42;;;;;;;11.20;8.00;;;;;;;9.16;72.77;97217.05;1837888;76;21144;-82
2021/10/28 17:46:06;;;;;;;9.55;7.03;;;;;;;9.13;72.69;97210.39;1818175;75;21091;-82
2021/10/28 17:48:32;;;;;;;8.65;6.47;;;;;;;9.13;72.57;97210.87;1825093;76;21106;-81
2021/10/28 17:50:58;;;;;;;9.70;6.60;;;;;;;9.11;72.66;97208.89;1818601;77;21062;-81
2021/10/28 17:53:24;;;;;;;9.10;6.90;;;;;;;9.08;72.65;97204.02;1832932;75;21422;-82
2021/10/28 17:55:50;;;;;;;9.53;6.10;;;;;;;9.05;72.79;97199.95;1807277;77;21041;-81
2021/10/28 17:58:16;;;;;;;10.90;6.92;;;;;;;9.05;72.88;97203.03;1841698;76;21075;-81
2021/10/28 18:00:42;;;;;;;10.10;6.78;;;;;;;9.05;72.67;97205.63;1822249;76;21106;-82
2021/10/28 18:05:36;;;;;;;8.05;6.47;;;;;;;9.05;72.66;97199.95;1810048;77;21051;-81
2021/10/28 18:08:03;;;;;;;8.28;6.03;;;;;;;9.03;72.80;97198.00;1806517;77;21529;-82
2021/10/28 18:10:30;;;;;;;7.70;6.05;;;;;;;9.02;72.95;97198.48;1806775;77;21082;-82
2021/10/28 18:12:55;;;;;;;8.10;6.67;;;;;;;8.99;72.86;97204.47;1820597;77;21062;-81
2021/10/28 18:15:23;;;;;;;8.95;7.05;;;;;;;8.96;72.96;97204.29;1817928;76;21331;-81
2021/10/28 18:17:49;;;;;;;8.65;6.35;;;;;;;8.97;73.06;97194.73;1777620;80;21056;-81
2021/10/28 18:20:15;;;;;;;9.53;5.83;;;;;;;8.98;73.00;97199.77;1778339;79;21087;-82
2021/10/28 18:22:42;;;;;;;8.40;6.12;;;;;;;8.98;73.08;97201.55;1782952;79;21563;-81
2021/10/28 18:25:09;;;;;;;8.30;6.03;;;;;;;8.98;72.96;97199.77;1759106;79;21118;-81
2021/10/28 18:27:40;;;;;;;7.25;5.97;;;;;;;8.96;72.98;97202.18;1785674;79;21091;-82
2021/10/28 18:30:10;;;;;;;7.30;5.40;;;;;;;8.92;72.96;97195.16;1767822;80;21089;-81
2021/10/28 18:32:38;;;;;;;8.25;6.72;;;;;;;8.90;73.04;97197.09;1768423;79;22162;-81
2021/10/28 18:35:06;;;;;;;7.15;5.95;;;;;;;8.88;73.34;97197.73;1787000;78;21126;-81
2021/10/28 18:37:32;;;;;;;9.15;5.78;;;;;;;8.87;73.30;97196.11;1797003;77;21091;-81
2021/10/28 18:39:58;;;;;;;8.05;5.90;;;;;;;8.87;73.30;97196.11;1781253;78;21054;-81
2021/10/28 18:42:24;;;;;;;8.25;5.83;;;;;;;8.87;73.34;97186.23;1784519;78;21488;-82
2021/10/28 18:44:50;;;;;;;6.70;5.53;;;;;;;8.87;73.26;97187.52;1786215;77;21126;-82
2021/10/28 18:47:16;;;;;;;7.05;5.53;;;;;;;8.87;73.14;97188.34;1778815;79;21063;-81
2021/10/28 18:49:43;;;;;;;8.30;5.53;;;;;;;8.85;73.29;97184.27;1822015;77;21155;-81
2021/10/28 18:52:09;;;;;;;8.30;5.80;;;;;;;8.82;73.22;97189.28;1826881;76;21550;-82
2021/10/28 18:54:37;;;;;;;29.05;12.15;;;;;;;8.80;73.13;97182.63;1834139;77;21158;-80
2021/10/28 18:57:03;;;;;;;36.38;14.43;;;;;;;8.78;73.17;97184.53;1818034;77;21497;-81
2021/10/28 18:59:29;;;;;;;11.33;6.40;;;;;;;8.76;73.04;97186.46;1813871;77;21128;-81
2021/10/28 19:01:56;;;;;;;8.40;6.20;;;;;;;8.75;73.04;97183.53;1832258;77;21431;-81
2021/10/28 19:04:24;;;;;;;9.28;6.67;;;;;;;8.73;73.07;97177.22;1839477;76;21388;-82
2021/10/28 19:06:51;;;;;;;7.30;6.03;;;;;;;8.70;73.17;97176.22;1833291;76;21080;-81
2021/10/28 19:09:17;;;;;;;9.30;5.85;;;;;;;8.68;73.47;97182.05;1820407;77;21067;-81
2021/10/28 19:11:45;;;;;;;8.15;6.08;;;;;;;8.64;73.59;97180.23;1800850;77;21474;-81
2021/10/28 19:14:11;;;;;;;8.13;5.37;;;;;;;8.61;73.60;97185.70;1808904;78;21083;-81
2021/10/28 19:16:37;;;;;;;7.67;5.80;;;;;;;8.59;73.49;97181.15;1807299;78;21192;-81
2021/10/28 19:19:03;;;;;;;6.97;4.90;;;;;;;8.60;73.48;97172.89;1809809;77;21040;-81
2021/10/28 19:21:30;;;;;;;6.10;4.72;;;;;;;8.60;73.52;97174.19;1804687;77;21099;-82
2021/10/28 19:23:56;;;;;;;5.58;4.55;;;;;;;8.59;73.45;97168.68;1785615;79;21113;-81
2021/10/28 19:26:22;;;;;;;4.95;4.17;;;;;;;8.56;73.31;97171.09;1765153;79;21129;-81
2021/10/28 19:28:48;;;;;;;5.40;4.03;;;;;;;8.53;73.30;97171.88;1817866;77;21497;-81
2021/10/28 19:31:19;;;;;;;5.90;4.05;;;;;;;8.48;73.20;97165.86;1836796;76;21056;-81
2021/10/28 19:33:45;;;;;;;5.00;3.65;;;;;;;8.43;73.19;97162.40;1811821;77;21037;-81
2021/10/28 19:36:16;;;;;;;5.33;4.50;;;;;;;8.43;72.88;97163.70;1794493;77;21445;-81
2021/10/28 19:46:33;;;;;;;4.75;3.50;;;;;;;8.38;72.44;97154.75;1746221;80;21452;-81
2021/10/28 19:49:00;;;;;;;3.98;3.52;;;;;;;8.35;72.35;97151.17;1754678;80;21081;-81
2021/10/28 19:51:26;;;;;;;4.10;3.15;;;;;;;8.32;72.19;97148.38;1765513;80;21170;-81
2021/10/28 19:53:53;;;;;;;4.10;3.58;;;;;;;8.29;72.26;97151.23;1830014;76;21177;-81
2021/10/28 19:56:20;;;;;;;5.00;3.42;;;;;;;8.27;72.23;97151.06;1795380;78;21502;-81
2021/10/28 19:58:55;;;;;;;3.33;2.90;;;;;;;8.26;72.02;97151.54;1797158;78;21091;-81
2021/10/28 20:01:27;;;;;;;3.40;3.10;;;;;;;8.28;71.67;97153.98;1825291;76;21150;-82
2021/10/28 20:14:26;;;;;;;3.85;3.08;;;;;;;8.20;71.55;97144.86;1760790;79;21136;-81
2021/10/28 20:21:58;;;;;;;3.83;3.20;;;;;;;8.11;71.81;97149.13;1795237;78;21469;-81
2021/10/28 20:24:24;;;;;;;5.10;3.67;;;;;;;8.12;71.93;97141.70;1789527;79;21118;-81
2021/10/28 20:26:50;;;;;;;5.00;3.25;;;;;;;8.14;71.52;97144.98;1780584;78;21055;-81
2021/10/28 20:29:16;;;;;;;4.30;3.45;;;;;;;8.16;71.53;97144.34;1792193;78;21137;-81
2021/10/28 20:31:41;;;;;;;4.33;3.42;;;;;;;8.15;71.27;97141.91;1774800;79;21064;-81
2021/10/28 20:39:20;;;;;;;4.20;2.90;;;;;;;8.05;71.77;97134.20;1755960;79;21189;-81
2021/10/28 20:41:46;;;;;;;4.65;3.35;;;;;;;8.01;71.76;97141.45;1794992;77;21539;-81
2021/10/28 20:44:12;;;;;;;4.70;3.47;;;;;;;8.00;71.77;97137.23;1760738;79;21142;-81
2021/10/28 20:46:38;;;;;;;5.47;3.62;;;;;;;8.02;71.77;97135.80;1754024;79;21243;-81
2021/10/28 20:49:04;;;;;;;5.35;3.47;;;;;;;8.05;71.94;97136.79;1792658;78;21143;-81
2021/10/28 20:51:30;;;;;;;3.75;3.05;;;;;;;8.10;71.86;97133.27;1777586;78;21090;-82
2021/10/28 20:53:56;;;;;;;3.33;3.00;;;;;;;8.12;71.60;97133.45;1791838;77;21516;-81
2021/10/28 20:56:26;;;;;;;4.12;3.40;;;;;;;8.13;71.68;97123.91;1758220;78;21062;-81
2021/10/28 20:58:50;;;;;;;4.37;3.12;;;;;;;8.11;71.71;97124.06;1772175;79;21392;-81
2021/10/28 21:01:16;;;;;;;3.35;3.05;;;;;;;8.09;71.31;97129.05;1830584;76;20999;-81
2021/10/28 21:03:44;;;;;;;4.10;3.30;;;;;;;8.08;71.43;97127.43;1818993;77;21063;-81
2021/10/28 21:06:10;;;;;;;4.37;3.20;;;;;;;8.05;70.96;97125.14;1838040;75;21473;-81
2021/10/28 21:08:35;;;;;;;3.87;3.12;;;;;;;8.02;70.95;97130.62;1792497;78;21062;-81